createdAt,value
2022-08-19T00:01:57.462Z,11.10
2022-08-19T00:04:31.613Z,10.40
2022-08-19T00:07:00.115Z,10.32
2022-08-19T00:09:27.621Z,10.85
2022-08-19T00:11:56.503Z,10.45
2022-08-19T00:14:25.561Z,10.23
2022-08-19T00:16:55.375Z,10.98
2022-08-19T00:19:23.970Z,11.35
2022-08-19T00:21:51.788Z,10.65
2022-08-19T00:24:18.798Z,11.18
2022-08-19T00:26:46.729Z,11.45
2022-08-19T00:29:16.691Z,11.13
2022-08-19T00:31:44.047Z,10.80
2022-08-19T00:34:13.006Z,11.18
2022-08-19T00:36:40.908Z,11.10
2022-08-19T00:39:08.087Z,11.07
2022-08-19T00:41:35.168Z,11.10
2022-08-19T00:44:11.592Z,10.05
2022-08-19T00:46:42.554Z,9.45
2022-08-19T00:49:33.766Z,8.10
2022-08-19T00:52:23.570Z,7.57
2022-08-19T00:54:52.883Z,7.47
2022-08-19T00:57:27.554Z,7.47
2022-08-19T01:00:01.568Z,8.68
2022-08-19T01:02:31.303Z,8.82
2022-08-19T01:04:58.666Z,8.23
2022-08-19T01:07:25.663Z,7.72
2022-08-19T01:09:52.901Z,6.72
2022-08-19T01:12:20.287Z,6.90
2022-08-19T01:14:48.725Z,6.80
2022-08-19T01:17:17.198Z,7.37
2022-08-19T01:19:47.646Z,6.93
2022-08-19T01:22:46.007Z,7.97
2022-08-19T01:25:15.846Z,6.82
2022-08-19T01:27:46.802Z,6.97
2022-08-19T01:30:24.398Z,10.13
2022-08-19T01:32:53.530Z,10.90
2022-08-19T01:35:22.033Z,10.43
2022-08-19T01:37:52.889Z,8.95
2022-08-19T01:40:21.870Z,11.50
2022-08-19T01:42:50.845Z,12.50
2022-08-19T01:45:20.106Z,13.63
2022-08-19T01:47:55.598Z,11.93
2022-08-19T01:50:34.242Z,12.40
2022-08-19T01:53:06.632Z,12.05
2022-08-19T01:55:40.528Z,13.10
2022-08-19T01:58:15.646Z,13.38
2022-08-19T02:00:43.716Z,11.00
2022-08-19T02:03:12.292Z,11.88
2022-08-19T02:05:40.955Z,12.00
2022-08-19T02:08:08.483Z,12.50
2022-08-19T02:10:40.608Z,11.82
2022-08-19T02:13:07.942Z,11.03
2022-08-19T02:15:34.826Z,11.00
2022-08-19T02:18:01.680Z,10.73
2022-08-19T02:20:28.685Z,11.45
2022-08-19T02:22:55.533Z,13.25
2022-08-19T02:25:22.395Z,14.38
2022-08-19T02:27:49.240Z,12.77
2022-08-19T02:30:19.949Z,13.40
2022-08-19T02:32:47.389Z,14.73
2022-08-19T02:35:15.498Z,14.52
2022-08-19T02:38:02.435Z,10.73
2022-08-19T02:40:33.020Z,10.95
2022-08-19T02:42:59.889Z,14.35
2022-08-19T02:45:26.790Z,14.02
2022-08-19T02:47:54.060Z,13.93
2022-08-19T02:50:21.031Z,14.25
2022-08-19T02:52:47.898Z,15.38
2022-08-19T02:55:15.034Z,15.70
2022-08-19T02:57:42.898Z,16.10
2022-08-19T03:00:13.504Z,15.27
2022-08-19T03:02:41.245Z,16.58
2022-08-19T03:05:10.471Z,16.60
2022-08-19T03:07:38.146Z,15.40
2022-08-19T03:10:05.962Z,16.52
2022-08-19T03:12:37.569Z,17.33
2022-08-19T03:15:08.658Z,17.58
2022-08-19T03:17:36.577Z,18.20
2022-08-19T03:20:05.030Z,19.10
2022-08-19T03:22:31.941Z,17.48
2022-08-19T03:25:00.077Z,17.80
2022-08-19T03:27:31.210Z,18.30
2022-08-19T03:30:01.346Z,17.77
2022-08-19T03:32:33.060Z,16.80
2022-08-19T03:35:00.834Z,15.77
2022-08-19T03:37:27.738Z,13.73
2022-08-19T03:39:54.631Z,12.45
2022-08-19T03:42:38.914Z,14.82
2022-08-19T03:45:09.004Z,15.47
2022-08-19T03:47:35.870Z,16.67
2022-08-19T03:50:03.280Z,18.63
2022-08-19T03:52:30.157Z,19.77
2022-08-19T03:54:57.154Z,20.10
2022-08-19T03:57:27.811Z,21.15
2022-08-19T04:00:13.164Z,21.83
2022-08-19T04:02:42.966Z,22.45
2022-08-19T04:05:29.355Z,20.40
2022-08-19T04:07:59.774Z,20.93
2022-08-19T04:10:26.659Z,18.17
2022-08-19T04:12:53.732Z,17.65
2022-08-19T04:15:21.786Z,15.18
2022-08-19T04:17:48.704Z,15.60
2022-08-19T04:20:15.548Z,18.25
2022-08-19T04:22:42.645Z,21.08
2022-08-19T04:25:10.027Z,20.20
2022-08-19T04:27:36.856Z,18.35
2022-08-19T04:30:04.873Z,16.83
2022-08-19T04:32:32.915Z,16.25
2022-08-19T04:35:02.640Z,15.77
2022-08-19T04:37:44.642Z,15.07
2022-08-19T04:40:30.250Z,14.77
2022-08-19T04:42:57.378Z,14.52
2022-08-19T04:45:24.333Z,13.77
2022-08-19T04:47:58.843Z,13.50
2022-08-19T04:50:44.774Z,15.93
2022-08-19T04:53:12.092Z,18.55
2022-08-19T04:55:43.420Z,17.95
2022-08-19T04:58:10.641Z,17.48
2022-08-19T05:00:40.723Z,15.55
2022-08-19T05:03:08.225Z,15.70
2022-08-19T05:05:44.399Z,18.87
2022-08-19T05:08:15.157Z,16.08
2022-08-19T05:10:42.511Z,16.42
2022-08-19T05:13:10.850Z,18.88
2022-08-19T05:15:37.803Z,19.35
2022-08-19T05:18:23.121Z,19.98
2022-08-19T05:21:08.587Z,16.55
2022-08-19T05:23:35.506Z,16.20
2022-08-19T05:26:02.404Z,15.68
2022-08-19T05:28:29.308Z,16.27
2022-08-19T05:30:58.350Z,17.50
2022-08-19T05:33:25.480Z,18.98
2022-08-19T05:35:52.788Z,22.23
2022-08-19T05:38:20.270Z,21.42
2022-08-19T05:40:50.328Z,22.02
2022-08-19T05:43:17.291Z,23.25
2022-08-19T05:45:45.003Z,24.95
2022-08-19T05:48:12.842Z,24.42
2022-08-19T05:50:41.871Z,27.92
2022-08-19T05:53:09.900Z,29.90
2022-08-19T05:55:39.094Z,31.13
2022-08-19T05:58:08.543Z,31.75
2022-08-19T06:00:37.164Z,30.83
2022-08-19T06:03:09.721Z,31.45
2022-08-19T06:05:46.813Z,32.85
2022-08-19T06:08:19.338Z,33.40
2022-08-19T06:10:46.269Z,34.97
2022-08-19T06:13:13.196Z,35.53
2022-08-19T06:15:40.074Z,35.97
2022-08-19T06:18:06.944Z,34.28
2022-08-19T06:20:54.472Z,34.50
2022-08-19T06:23:21.160Z,35.60
2022-08-19T06:25:51.323Z,32.08
2022-08-19T06:28:18.470Z,32.22
2022-08-19T06:30:45.839Z,32.15
2022-08-19T06:33:12.698Z,31.92
2022-08-19T06:35:41.155Z,31.10
2022-08-19T06:38:08.249Z,32.65
2022-08-19T06:40:36.653Z,33.28
2022-08-19T06:43:03.669Z,33.83
2022-08-19T06:45:34.984Z,35.63
2022-08-19T06:48:03.461Z,31.70
2022-08-19T06:50:30.381Z,29.45
2022-08-19T06:52:57.253Z,28.75
2022-08-19T06:55:30.213Z,27.15
2022-08-19T06:58:04.633Z,27.58
2022-08-19T07:03:07.685Z,28.80
2022-08-19T07:05:45.832Z,28.80
2022-08-19T07:08:14.142Z,30.20
2022-08-19T07:10:44.701Z,29.20
2022-08-19T07:13:12.484Z,28.08
2022-08-19T07:15:39.822Z,26.90
2022-08-19T07:18:07.003Z,26.42
2022-08-19T07:20:40.037Z,26.05
2022-08-19T07:23:09.370Z,24.90
2022-08-19T07:25:39.495Z,25.63
2022-08-19T07:28:24.020Z,23.40
2022-08-19T07:30:52.107Z,23.63
2022-08-19T07:33:20.268Z,23.95
2022-08-19T07:35:47.181Z,23.27
2022-08-19T07:38:15.772Z,23.08
2022-08-19T07:40:44.005Z,20.88
2022-08-19T07:43:14.039Z,19.35
2022-08-19T07:45:44.219Z,18.13
2022-08-19T07:48:11.459Z,19.52
2022-08-19T07:50:38.300Z,19.98
2022-08-19T07:53:05.262Z,20.75
2022-08-19T07:55:40.051Z,21.00
2022-08-19T07:58:08.472Z,20.88
2022-08-19T08:00:36.296Z,21.10
2022-08-19T08:03:03.299Z,20.48
2022-08-19T08:05:48.657Z,20.87
2022-08-19T08:08:34.119Z,20.97
2022-08-19T08:11:01.624Z,21.10
2022-08-19T08:13:29.166Z,21.17
2022-08-19T08:15:57.241Z,20.90
2022-08-19T08:18:27.977Z,22.55
2022-08-19T08:20:58.447Z,23.07
2022-08-19T08:23:26.875Z,22.90
2022-08-19T08:25:57.935Z,22.87
2022-08-19T08:28:26.363Z,19.60
2022-08-19T08:30:57.937Z,16.55
2022-08-19T08:33:32.885Z,16.10
2022-08-19T08:36:00.294Z,16.83
2022-08-19T08:38:27.252Z,17.00
2022-08-19T08:41:07.527Z,16.58
2022-08-19T08:43:38.100Z,16.35
2022-08-19T08:46:31.001Z,14.90
2022-08-19T08:49:21.393Z,15.68
2022-08-19T08:51:59.525Z,13.75
2022-08-19T08:54:39.599Z,13.98
2022-08-19T08:57:15.311Z,13.00
2022-08-19T08:59:44.351Z,13.45
2022-08-19T09:02:11.191Z,14.10
2022-08-19T09:04:38.947Z,14.40
2022-08-19T09:07:18.137Z,14.82
2022-08-19T09:10:08.642Z,16.25
2022-08-19T09:12:59.295Z,18.13
2022-08-19T09:15:39.459Z,18.48
2022-08-19T09:18:07.400Z,18.52
2022-08-19T09:20:34.510Z,19.33
2022-08-19T09:23:01.444Z,19.38
2022-08-19T09:25:29.681Z,20.85
2022-08-19T09:28:05.628Z,21.25
2022-08-19T09:30:40.331Z,22.37
2022-08-19T09:33:07.962Z,22.60
2022-08-19T09:35:50.194Z,22.90
2022-08-19T09:38:21.688Z,23.80
2022-08-19T09:40:50.067Z,23.42
2022-08-19T09:43:33.163Z,22.08
2022-08-19T09:46:01.931Z,23.75
2022-08-19T09:48:28.931Z,23.23
2022-08-19T09:50:55.818Z,23.98
2022-08-19T09:53:23.503Z,24.45
2022-08-19T09:55:53.047Z,24.08
2022-08-19T09:58:24.683Z,23.98
2022-08-19T10:00:54.691Z,24.83
2022-08-19T10:03:21.844Z,25.27
2022-08-19T10:05:55.271Z,25.08
2022-08-19T10:08:28.837Z,25.25
2022-08-19T10:10:56.889Z,26.23
2022-08-19T10:13:29.709Z,23.63
2022-08-19T10:16:04.201Z,22.60
2022-08-19T10:18:31.233Z,21.90
2022-08-19T10:21:11.569Z,20.52
2022-08-19T10:23:41.416Z,20.35
2022-08-19T10:26:08.481Z,20.63
2022-08-19T10:28:39.872Z,19.23
2022-08-19T10:31:12.871Z,19.98
2022-08-19T10:33:53.563Z,19.58
2022-08-19T10:36:23.551Z,19.48
2022-08-19T10:38:56.699Z,19.45
2022-08-19T10:41:35.872Z,19.57
2022-08-19T10:44:06.111Z,20.15
2022-08-19T10:46:35.984Z,20.38
2022-08-19T10:49:06.044Z,21.13
2022-08-19T10:51:52.073Z,19.73
2022-08-19T10:54:31.116Z,20.80
2022-08-19T10:56:59.039Z,21.17
2022-08-19T10:59:33.861Z,20.13
2022-08-19T11:02:05.324Z,20.52
2022-08-19T11:04:33.498Z,19.88
2022-08-19T11:07:00.333Z,21.55
2022-08-19T11:09:33.885Z,21.63
2022-08-19T11:12:02.774Z,21.15
2022-08-19T11:14:34.412Z,21.70
2022-08-19T11:17:01.964Z,20.47
2022-08-19T11:19:28.917Z,20.73
2022-08-19T11:21:57.603Z,18.60
2022-08-19T11:24:28.417Z,17.45
2022-08-19T11:27:01.024Z,17.83
2022-08-19T11:29:29.068Z,16.73
2022-08-19T11:31:56.021Z,17.52
2022-08-19T11:34:26.217Z,16.55
2022-08-19T11:36:58.886Z,17.38
2022-08-19T11:39:28.308Z,17.30
2022-08-19T11:41:55.428Z,16.15
2022-08-19T11:44:22.352Z,16.77
2022-08-19T11:46:49.353Z,16.23
2022-08-19T11:49:19.907Z,14.40
2022-08-19T11:51:48.293Z,14.50
2022-08-19T11:54:17.371Z,15.55
2022-08-19T11:56:45.229Z,14.85
2022-08-19T11:59:14.930Z,15.07
2022-08-19T12:01:43.603Z,16.48
2022-08-19T12:04:11.646Z,16.58
2022-08-19T12:06:41.163Z,15.25
2022-08-19T12:09:12.033Z,14.10
2022-08-19T12:11:40.414Z,14.68
2022-08-19T12:14:10.119Z,14.40
2022-08-19T12:16:42.720Z,13.55
2022-08-19T12:19:16.614Z,13.30
2022-08-19T12:21:49.807Z,12.50
2022-08-19T12:24:16.724Z,12.52
2022-08-19T12:26:53.079Z,11.52
2022-08-19T12:29:23.625Z,12.38
2022-08-19T12:31:51.705Z,12.33
2022-08-19T12:34:20.740Z,12.00
2022-08-19T12:36:50.151Z,11.82
2022-08-19T12:39:17.169Z,10.38
2022-08-19T12:41:51.600Z,10.70
2022-08-19T12:44:29.157Z,10.60
2022-08-19T12:46:57.622Z,10.47
2022-08-19T12:49:53.978Z,9.73
2022-08-19T12:52:16.173Z,9.77
2022-08-19T12:54:47.249Z,8.70
2022-08-19T12:57:14.121Z,6.90
2022-08-19T12:59:42.238Z,6.15
2022-08-19T13:02:09.939Z,5.90
2022-08-19T13:04:38.849Z,5.10
2022-08-19T13:07:05.794Z,5.50
2022-08-19T13:09:43.517Z,6.80
2022-08-19T13:12:14.019Z,7.60
2022-08-19T13:14:41.830Z,8.05
2022-08-19T13:17:09.542Z,9.85
2022-08-19T13:19:38.277Z,8.25
2022-08-19T13:22:12.476Z,6.30
2022-08-19T13:24:46.809Z,5.53
2022-08-19T13:27:14.977Z,5.80
2022-08-19T13:30:01.619Z,6.60
2022-08-19T13:32:48.857Z,5.85
2022-08-19T13:35:18.107Z,6.82
2022-08-19T13:37:46.338Z,7.05
2022-08-19T13:40:20.027Z,7.95
2022-08-19T13:42:49.991Z,8.35
2022-08-19T13:45:20.560Z,13.02
2022-08-19T13:47:48.909Z,13.10
2022-08-19T13:50:20.694Z,11.65
2022-08-19T13:52:48.526Z,10.43
2022-08-19T13:55:16.560Z,10.67
2022-08-19T13:57:54.034Z,11.60
2022-08-19T14:00:23.127Z,13.27
2022-08-19T14:02:52.999Z,12.93
2022-08-19T14:05:21.767Z,8.00
2022-08-19T14:07:49.247Z,7.88
2022-08-19T14:10:17.622Z,7.60
2022-08-19T14:12:44.581Z,7.10
2022-08-19T14:15:12.565Z,6.53
2022-08-19T14:17:41.415Z,6.25
2022-08-19T14:20:11.412Z,6.85
2022-08-19T14:22:46.785Z,6.38
2022-08-19T14:25:17.774Z,6.50
2022-08-19T14:27:45.399Z,6.63
2022-08-19T14:30:16.107Z,6.63
2022-08-19T14:32:44.398Z,7.00
2022-08-19T14:35:13.559Z,8.07
2022-08-19T14:37:45.726Z,7.85
2022-08-19T14:40:15.239Z,7.80
2022-08-19T14:42:42.894Z,6.43
2022-08-19T14:45:11.428Z,6.50
2022-08-19T14:47:39.850Z,6.00
2022-08-19T14:50:18.066Z,6.47
2022-08-19T14:52:49.424Z,7.68
2022-08-19T14:55:18.107Z,7.43
2022-08-19T14:57:45.826Z,7.70
2022-08-19T15:00:14.335Z,6.97
2022-08-19T15:02:42.734Z,8.07
2022-08-19T15:05:09.950Z,9.30
2022-08-19T15:07:37.707Z,10.10
2022-08-19T15:10:07.867Z,12.07
2022-08-19T15:12:43.248Z,10.77
2022-08-19T15:15:15.564Z,10.95
2022-08-19T15:17:46.469Z,11.25
2022-08-19T15:20:19.894Z,11.25
2022-08-19T15:22:47.193Z,10.82
2022-08-19T15:25:17.883Z,10.60
2022-08-19T15:27:44.756Z,9.48
2022-08-19T15:30:12.633Z,9.80
2022-08-19T15:32:40.130Z,8.63
2022-08-19T15:35:08.342Z,8.32
2022-08-19T15:37:37.258Z,8.77
2022-08-19T15:40:07.537Z,8.52
2022-08-19T15:42:37.954Z,8.20
2022-08-19T15:45:07.146Z,8.68
2022-08-19T15:47:34.605Z,9.02
2022-08-19T15:50:13.640Z,8.15
2022-08-19T15:52:53.791Z,7.47
2022-08-19T15:55:32.764Z,5.72
2022-08-19T15:58:37.461Z,4.90
2022-08-19T16:01:27.391Z,4.90
2022-08-19T16:04:16.033Z,6.15
2022-08-19T16:06:50.120Z,6.60
2022-08-19T16:09:22.110Z,7.03
2022-08-19T16:11:56.987Z,6.78
2022-08-19T16:14:26.506Z,6.28
2022-08-19T16:16:56.806Z,6.13
2022-08-19T16:19:25.022Z,6.47
2022-08-19T16:21:54.421Z,6.30
2022-08-19T16:24:23.769Z,6.70
2022-08-19T16:26:50.694Z,6.57
2022-08-19T16:29:33.379Z,6.50
2022-08-19T16:32:09.913Z,6.57
2022-08-19T16:34:38.409Z,7.10
2022-08-19T16:37:05.549Z,7.07
2022-08-19T16:39:32.716Z,7.25
2022-08-19T16:41:59.732Z,7.30
2022-08-19T16:44:29.649Z,8.30
2022-08-19T16:46:59.500Z,7.75
2022-08-19T16:49:53.656Z,7.05
2022-08-19T16:52:16.589Z,6.72
2022-08-19T16:54:43.977Z,6.90
2022-08-19T16:57:12.863Z,5.80
2022-08-19T16:59:43.154Z,5.30
2022-08-19T17:02:18.139Z,5.53
2022-08-19T17:04:57.301Z,5.60
2022-08-19T17:07:27.836Z,6.20
2022-08-19T17:09:55.488Z,6.73
2022-08-19T17:12:30.253Z,6.57
2022-08-19T17:15:03.670Z,6.88
2022-08-19T17:17:31.953Z,6.97
2022-08-19T17:20:00.468Z,7.30
2022-08-19T17:22:27.496Z,6.82
2022-08-19T17:24:56.372Z,6.68
2022-08-19T17:27:25.527Z,6.80
2022-08-19T17:29:53.014Z,6.90
2022-08-19T17:32:25.162Z,7.10
2022-08-19T17:34:54.197Z,7.37
2022-08-19T17:37:21.204Z,7.97
2022-08-19T17:39:48.113Z,6.32
2022-08-19T17:42:15.025Z,6.47
2022-08-19T17:44:42.142Z,5.88
2022-08-19T17:47:13.040Z,5.13
2022-08-19T17:49:40.022Z,4.40
2022-08-19T17:52:09.899Z,3.22
2022-08-19T17:54:37.366Z,3.70
2022-08-19T17:57:04.459Z,3.60
2022-08-19T17:59:31.451Z,3.70
2022-08-19T18:02:00.060Z,3.33
2022-08-19T18:04:27.161Z,3.30
2022-08-19T18:06:55.601Z,3.60
2022-08-19T18:09:41.266Z,3.60
2022-08-19T18:12:11.589Z,4.03
2022-08-19T18:14:40.134Z,4.00
2022-08-19T18:17:10.376Z,3.97
2022-08-19T18:19:42.144Z,3.70
2022-08-19T18:22:12.267Z,3.78
2022-08-19T18:24:41.570Z,3.60
2022-08-19T18:27:08.770Z,3.72
2022-08-19T18:29:38.238Z,3.70
2022-08-19T18:32:09.147Z,3.80
2022-08-19T18:34:36.784Z,4.00
2022-08-19T18:37:04.158Z,3.80
2022-08-19T18:39:49.951Z,3.90
2022-08-19T18:42:35.945Z,4.10
2022-08-19T18:45:22.319Z,4.60
2022-08-19T18:48:07.731Z,3.92
2022-08-19T18:50:53.311Z,4.50
2022-08-19T18:53:20.388Z,4.10
2022-08-19T18:55:49.478Z,4.15
2022-08-19T18:58:16.439Z,4.40
2022-08-19T19:00:44.044Z,4.38
2022-08-19T19:03:11.664Z,4.85
2022-08-19T19:05:39.918Z,5.00
2022-08-19T19:08:07.899Z,5.10
2022-08-19T19:10:36.271Z,5.22
2022-08-19T19:13:03.539Z,5.40
2022-08-19T19:15:30.482Z,5.45
2022-08-19T19:17:59.219Z,5.13
2022-08-19T19:20:35.067Z,5.20
2022-08-19T19:23:03.756Z,5.00
2022-08-19T19:25:50.659Z,5.00
2022-08-19T19:28:28.440Z,4.70
2022-08-19T19:30:59.871Z,4.10
2022-08-19T19:33:27.912Z,4.18
2022-08-19T19:35:55.081Z,3.70
2022-08-19T19:38:22.084Z,3.60
2022-08-19T19:40:48.971Z,3.70
2022-08-19T19:43:18.337Z,4.03
2022-08-19T19:45:48.252Z,4.20
2022-08-19T19:48:15.524Z,4.20
2022-08-19T19:50:44.025Z,4.80
2022-08-19T19:53:11.416Z,5.13
2022-08-19T19:55:41.084Z,5.10
2022-08-19T19:58:08.335Z,5.20
2022-08-19T20:00:35.818Z,6.13
2022-08-19T20:03:02.877Z,6.40
2022-08-19T20:05:29.815Z,6.53
2022-08-19T20:08:15.443Z,6.65
2022-08-19T20:10:43.767Z,6.90
2022-08-19T20:13:15.486Z,6.60
2022-08-19T20:15:45.643Z,6.70
2022-08-19T20:18:14.516Z,7.30
2022-08-19T20:20:42.118Z,7.95
2022-08-19T20:23:09.144Z,8.15
2022-08-19T20:25:38.067Z,7.40
2022-08-19T20:28:05.747Z,8.30
2022-08-19T20:30:33.312Z,8.40
2022-08-19T20:33:01.958Z,8.85
2022-08-19T20:35:28.921Z,8.73
2022-08-19T20:37:58.354Z,9.07
2022-08-19T20:40:27.018Z,10.35
2022-08-19T20:42:54.894Z,9.07
2022-08-19T20:45:32.784Z,9.15
2022-08-19T20:48:03.073Z,9.05
2022-08-19T20:50:31.943Z,9.30
2022-08-19T20:52:59.175Z,8.83
2022-08-19T20:55:27.317Z,8.80
2022-08-19T20:57:54.885Z,8.65
2022-08-19T21:00:22.047Z,8.57
2022-08-19T21:02:48.911Z,8.70
2022-08-19T21:05:15.829Z,8.85
2022-08-19T21:07:42.721Z,8.73
2022-08-19T21:10:09.610Z,8.80
2022-08-19T21:12:36.624Z,9.00
2022-08-19T21:15:05.165Z,8.98
2022-08-19T21:17:32.028Z,8.93
2022-08-19T21:19:59.158Z,9.02
2022-08-19T21:22:26.115Z,9.00
2022-08-19T21:24:52.974Z,8.50
2022-08-19T21:27:20.097Z,9.40
2022-08-19T21:29:47.068Z,9.40
2022-08-19T21:32:14.648Z,9.30
2022-08-19T21:34:43.701Z,10.05
2022-08-19T21:37:25.797Z,9.48
2022-08-19T21:39:54.547Z,8.95
2022-08-19T21:42:23.153Z,9.23
2022-08-19T21:44:50.226Z,9.18
2022-08-19T21:47:17.092Z,9.10
2022-08-19T21:49:44.012Z,9.63
2022-08-19T21:52:10.867Z,9.20
2022-08-19T21:54:38.717Z,8.80
2022-08-19T21:57:09.958Z,8.75
2022-08-19T21:59:41.280Z,9.20
2022-08-19T22:02:19.924Z,9.47
2022-08-19T22:04:48.965Z,9.38
2022-08-19T22:07:15.978Z,9.50
2022-08-19T22:09:45.150Z,9.50
2022-08-19T22:12:24.129Z,9.90
2022-08-19T22:14:52.455Z,10.05
2022-08-19T22:17:19.817Z,9.90
2022-08-19T22:19:47.027Z,9.88
2022-08-19T22:22:24.180Z,9.50
2022-08-19T22:24:52.298Z,10.10
2022-08-19T22:27:20.165Z,9.50
2022-08-19T22:29:47.530Z,9.68
2022-08-19T22:32:27.052Z,10.02
2022-08-19T22:34:58.287Z,9.82
2022-08-19T22:37:25.882Z,10.43
2022-08-19T22:39:53.170Z,9.98
2022-08-19T22:42:21.400Z,10.02
2022-08-19T22:44:48.977Z,10.03
2022-08-19T22:47:16.086Z,10.65
2022-08-19T22:49:43.728Z,10.27
2022-08-19T22:52:20.032Z,11.07
2022-08-19T22:54:52.498Z,10.48
2022-08-19T22:57:20.902Z,11.32
2022-08-19T22:59:50.086Z,11.40
2022-08-19T23:02:27.276Z,11.27
2022-08-19T23:04:54.608Z,11.20
2022-08-19T23:07:23.824Z,11.30
2022-08-19T23:09:51.016Z,10.93
2022-08-19T23:12:30.741Z,11.45
2022-08-19T23:15:09.821Z,11.10
2022-08-19T23:17:38.114Z,11.18
2022-08-19T23:20:07.983Z,10.80
2022-08-19T23:22:38.135Z,11.20
2022-08-19T23:25:07.735Z,11.43
2022-08-19T23:27:53.234Z,11.38
2022-08-19T23:30:26.539Z,12.05
2022-08-19T23:32:59.058Z,12.40
2022-08-19T23:35:27.297Z,11.93
2022-08-19T23:37:54.298Z,11.98
2022-08-19T23:40:21.985Z,12.63
2022-08-19T23:42:50.765Z,12.57
2022-08-19T23:45:22.930Z,13.30
2022-08-19T23:47:51.064Z,13.25
2022-08-19T23:50:21.263Z,13.13
2022-08-19T23:52:54.275Z,13.43
2022-08-19T23:55:24.755Z,13.10
2022-08-19T23:57:51.854Z,13.50
